Time;durP1;ratioP1;P1;durP2;ratioP2;P2;SDS_P1;SDS_P2;PMS_P1;PMS_P2;Temp;Humidity;BMP_temperature;BMP_pressure;BME280_temperature;BME280_humidity;BME280_pressure;Samples;Min_cycle;Max_cycle;Signal;HPM_P1;HPM_P2
2024/04/08 00:01:01;;;;;;;2.03;1.23;;;;;;;;;;5058266;28;20078;-77
2024/04/08 00:03:27;;;;;;;1.75;1.42;;;;;;;;;;5064466;28;20032;-77
2024/04/08 00:05:52;;;;;;;5.57;4.55;;;;;;;;;;5059278;28;21767;-77
2024/04/08 00:08:17;;;;;;;7.68;2.85;;;;;;;;;;5044386;28;20067;-77
2024/04/08 00:10:43;;;;;;;1.50;1.40;;;;;;;;;;5061756;28;20045;-77
2024/04/08 00:13:08;;;;;;;1.10;0.95;;;;;;;;;;5064361;28;20055;-78
2024/04/08 00:15:34;;;;;;;1.90;1.77;;;;;;;;;;5060201;28;20682;-77
2024/04/08 00:17:59;;;;;;;2.72;2.42;;;;;;;;;;5056764;28;20040;-78
2024/04/08 00:20:24;;;;;;;6.85;1.90;;;;;;;;;;5066019;28;20123;-78
2024/04/08 00:22:53;;;;;;;1.58;1.45;;;;;;;;;;5062164;28;20063;-79
2024/04/08 00:25:19;;;;;;;1.73;1.63;;;;;;;;;;5057071;28;20045;-78
2024/04/08 00:27:44;;;;;;;1.70;1.50;;;;;;;;;;5061166;28;20374;-78
2024/04/08 00:30:10;;;;;;;1.98;1.85;;;;;;;;;;5065942;28;20542;-78
2024/04/08 00:32:35;;;;;;;1.25;1.17;;;;;;;;;;5066513;28;20447;-79
2024/04/08 00:35:00;;;;;;;3.42;2.58;;;;;;;;;;5063531;28;20032;-79
2024/04/08 00:37:26;;;;;;;3.90;3.40;;;;;;;;;;5046311;28;20507;-78
2024/04/08 00:39:51;;;;;;;2.05;1.20;;;;;;;;;;5058994;28;20468;-80
2024/04/08 00:42:17;;;;;;;3.65;3.35;;;;;;;;;;5060449;28;20025;-79
2024/04/08 00:44:43;;;;;;;2.10;1.88;;;;;;;;;;5061235;28;20488;-80
2024/04/08 00:47:09;;;;;;;3.22;2.92;;;;;;;;;;5061790;28;20037;-78
2024/04/08 00:49:34;;;;;;;1.25;1.08;;;;;;;;;;5060953;28;20045;-79
2024/04/08 00:52:00;;;;;;;1.33;1.17;;;;;;;;;;5063234;28;20028;-77
2024/04/08 00:54:25;;;;;;;2.40;2.15;;;;;;;;;;5044576;28;20016;-78
2024/04/08 00:56:53;;;;;;;3.03;2.33;;;;;;;;;;5061571;28;20693;-78
2024/04/08 00:59:20;;;;;;;0.98;0.88;;;;;;;;;;5066214;28;20040;-78
2024/04/08 01:01:45;;;;;;;2.22;1.60;;;;;;;;;;5063348;28;20047;-77
2024/04/08 01:04:11;;;;;;;1.35;1.25;;;;;;;;;;5061512;28;20056;-78
2024/04/08 01:06:37;;;;;;;2.58;2.38;;;;;;;;;;5063022;28;20473;-79
2024/04/08 01:09:02;;;;;;;2.17;1.35;;;;;;;;;;5061559;28;20043;-78
2024/04/08 01:11:28;;;;;;;3.95;2.65;;;;;;;;;;5065009;28;20040;-77
2024/04/08 01:13:54;;;;;;;3.28;3.00;;;;;;;;;;5063944;28;20484;-77
2024/04/08 01:16:19;;;;;;;1.60;1.50;;;;;;;;;;5066800;28;20094;-77
2024/04/08 01:18:45;;;;;;;3.67;2.70;;;;;;;;;;5064677;28;20056;-77
2024/04/08 01:21:10;;;;;;;5.40;2.75;;;;;;;;;;5046074;28;20080;-76
2024/04/08 01:23:40;;;;;;;3.30;2.08;;;;;;;;;;5065260;28;20052;-77
2024/04/08 01:26:05;;;;;;;2.15;1.67;;;;;;;;;;5058972;28;20484;-76
2024/04/08 01:28:31;;;;;;;2.47;2.28;;;;;;;;;;5046955;28;20036;-75
2024/04/08 01:31:00;;;;;;;1.85;1.65;;;;;;;;;;5047565;28;20021;-78
2024/04/08 01:33:25;;;;;;;12.13;3.38;;;;;;;;;;5068817;28;20059;-78
2024/04/08 01:35:51;;;;;;;2.88;2.25;;;;;;;;;;5065532;28;20083;-79
2024/04/08 01:38:17;;;;;;;6.47;2.90;;;;;;;;;;5063754;28;20045;-78
2024/04/08 01:40:43;;;;;;;2.30;1.55;;;;;;;;;;5061739;28;20047;-79
2024/04/08 01:43:08;;;;;;;2.28;2.08;;;;;;;;;;5055491;28;20436;-78
2024/04/08 01:45:34;;;;;;;1.05;0.93;;;;;;;;;;5056470;28;23025;-76
2024/04/08 01:47:59;;;;;;;1.40;1.30;;;;;;;;;;5056732;28;20114;-76
2024/04/08 01:50:24;;;;;;;2.70;2.50;;;;;;;;;;5053831;28;20526;-79
2024/04/08 01:52:50;;;;;;;1.92;1.63;;;;;;;;;;5055879;28;20095;-76
2024/04/08 01:55:15;;;;;;;1.67;1.38;;;;;;;;;;5057965;28;20068;-76
2024/04/08 01:57:40;;;;;;;2.88;1.88;;;;;;;;;;5059258;28;20886;-76
2024/04/08 02:00:07;;;;;;;3.17;2.53;;;;;;;;;;5060996;28;20098;-77
2024/04/08 02:02:33;;;;;;;2.20;1.98;;;;;;;;;;5037777;28;20113;-75
2024/04/08 02:04:58;;;;;;;3.25;2.95;;;;;;;;;;5053570;28;20057;-76
2024/04/08 02:07:24;;;;;;;1.85;1.55;;;;;;;;;;5056174;28;20161;-75
2024/04/08 02:09:49;;;;;;;3.40;1.88;;;;;;;;;;5052016;28;20803;-77
2024/04/08 02:12:14;;;;;;;2.40;2.03;;;;;;;;;;5052766;28;20044;-74
2024/04/08 02:14:40;;;;;;;0.30;0.30;;;;;;;;;;5054284;28;20047;-76
2024/04/08 02:17:05;;;;;;;2.50;2.05;;;;;;;;;;5062620;28;20036;-77
2024/04/08 02:19:30;;;;;;;2.88;2.30;;;;;;;;;;5055469;28;20564;-76
2024/04/08 02:21:56;;;;;;;0.82;0.82;;;;;;;;;;5048793;28;20027;-79
2024/04/08 02:24:22;;;;;;;1.75;1.55;;;;;;;;;;5056876;28;20033;-77
2024/04/08 02:26:47;;;;;;;1.90;1.05;;;;;;;;;;5060519;28;20052;-76
2024/04/08 02:29:12;;;;;;;2.22;1.75;;;;;;;;;;5056930;28;20037;-77
2024/04/08 02:31:38;;;;;;;1.77;1.67;;;;;;;;;;5056439;28;20172;-77
2024/04/08 02:34:03;;;;;;;10.98;2.78;;;;;;;;;;5063978;28;20024;-76
2024/04/08 02:36:28;;;;;;;2.47;2.28;;;;;;;;;;5059438;28;20110;-75
2024/04/08 02:38:54;;;;;;;1.95;1.83;;;;;;;;;;5040962;28;20488;-76
2024/04/08 02:41:19;;;;;;;2.88;2.58;;;;;;;;;;5057556;28;20109;-76
2024/04/08 02:43:45;;;;;;;1.85;1.73;;;;;;;;;;5055264;28;20048;-76
2024/04/08 02:46:11;;;;;;;5.28;2.55;;;;;;;;;;5057467;28;20113;-77
2024/04/08 02:48:38;;;;;;;0.50;0.50;;;;;;;;;;5057390;28;20029;-77
2024/04/08 02:51:04;;;;;;;3.30;2.47;;;;;;;;;;5057306;28;20036;-77
2024/04/08 02:53:29;;;;;;;5.78;2.20;;;;;;;;;;5041474;28;20063;-77
2024/04/08 02:56:00;;;;;;;1.45;1.35;;;;;;;;;;5048569;28;20078;-77
2024/04/08 02:58:25;;;;;;;1.50;1.40;;;;;;;;;;5052718;28;20053;-77
2024/04/08 03:00:51;;;;;;;1.15;1.08;;;;;;;;;;5066290;28;20020;-77
2024/04/08 03:03:18;;;;;;;2.90;2.30;;;;;;;;;;5064499;28;20392;-76
2024/04/08 03:05:44;;;;;;;11.73;1.98;;;;;;;;;;5062740;28;20079;-77
2024/04/08 03:08:09;;;;;;;1.45;1.17;;;;;;;;;;5052985;28;20064;-75
2024/04/08 03:10:34;;;;;;;1.58;1.48;;;;;;;;;;5063060;28;20051;-76
2024/04/08 03:13:00;;;;;;;3.35;1.25;;;;;;;;;;5064567;28;20017;-75
2024/04/08 03:15:25;;;;;;;2.25;1.88;;;;;;;;;;5068462;28;20534;-76
2024/04/08 03:17:50;;;;;;;1.65;1.45;;;;;;;;;;5056681;28;20502;-76
2024/04/08 03:20:16;;;;;;;1.67;1.55;;;;;;;;;;5056670;28;20148;-74
2024/04/08 03:22:42;;;;;;;1.35;1.25;;;;;;;;;;5063722;28;20041;-76
2024/04/08 03:25:07;;;;;;;2.53;0.80;;;;;;;;;;5060998;28;20032;-76
2024/04/08 03:27:32;;;;;;;5.68;4.57;;;;;;;;;;5057524;28;20066;-78
2024/04/08 03:29:58;;;;;;;1.95;1.73;;;;;;;;;;5062628;28;20147;-77
2024/04/08 03:32:23;;;;;;;2.30;2.20;;;;;;;;;;5064639;28;20127;-77
2024/04/08 03:34:48;;;;;;;0.88;0.88;;;;;;;;;;5052423;28;20029;-77
2024/04/08 03:37:14;;;;;;;1.92;1.77;;;;;;;;;;5047141;28;20076;-76
2024/04/08 03:39:40;;;;;;;1.20;1.05;;;;;;;;;;5059955;28;20043;-78
2024/04/08 03:42:05;;;;;;;3.58;2.95;;;;;;;;;;5041728;28;20129;-75
2024/04/08 03:44:30;;;;;;;1.92;1.73;;;;;;;;;;5046236;28;20439;-78
2024/04/08 03:46:56;;;;;;;3.25;1.33;;;;;;;;;;5043645;28;20056;-78
2024/04/08 03:49:21;;;;;;;2.20;2.00;;;;;;;;;;5046193;28;20034;-76
2024/04/08 03:51:47;;;;;;;1.73;1.63;;;;;;;;;;5041028;28;20083;-76
2024/04/08 03:54:12;;;;;;;2.03;1.48;;;;;;;;;;5040966;28;20059;-76
2024/04/08 03:56:37;;;;;;;2.95;1.70;;;;;;;;;;5032905;28;20052;-76
2024/04/08 03:59:03;;;;;;;7.20;4.60;;;;;;;;;;5043406;28;20895;-78
2024/04/08 04:01:29;;;;;;;10.90;3.08;;;;;;;;;;5030727;28;20068;-77
2024/04/08 04:03:54;;;;;;;2.45;2.25;;;;;;;;;;5046358;28;20490;-75
2024/04/08 04:06:19;;;;;;;2.03;1.83;;;;;;;;;;5037412;28;20021;-78
2024/04/08 04:08:45;;;;;;;4.85;3.40;;;;;;;;;;5044380;28;20076;-76
2024/04/08 04:11:10;;;;;;;1.52;1.40;;;;;;;;;;5043719;28;20412;-74
2024/04/08 04:13:36;;;;;;;2.20;1.65;;;;;;;;;;5041763;28;20045;-74
2024/04/08 04:16:04;;;;;;;0.80;0.80;;;;;;;;;;5043571;28;20508;-81
2024/04/08 04:18:29;;;;;;;2.15;2.03;;;;;;;;;;5035146;28;20111;-79
2024/04/08 04:20:55;;;;;;;2.80;2.60;;;;;;;;;;5042633;28;20040;-76
2024/04/08 04:23:22;;;;;;;2.33;1.85;;;;;;;;;;5036917;28;20049;-80
2024/04/08 04:25:57;;;;;;;2.70;1.77;;;;;;;;;;5037587;28;20489;-80
2024/04/08 04:28:23;;;;;;;2.85;2.17;;;;;;;;;;5042409;28;20397;-79
2024/04/08 04:30:56;;;;;;;2.78;2.53;;;;;;;;;;5036396;28;20114;-81
2024/04/08 04:33:21;;;;;;;0.20;0.20;;;;;;;;;;5055362;28;20524;-81
2024/04/08 04:35:53;;;;;;;1.85;1.67;;;;;;;;;;5041957;28;20045;-77
2024/04/08 04:38:18;;;;;;;1.75;1.48;;;;;;;;;;5050952;28;20044;-80
2024/04/08 04:40:44;;;;;;;1.92;1.50;;;;;;;;;;5047759;28;20806;-81
2024/04/08 04:43:09;;;;;;;1.65;1.25;;;;;;;;;;5045461;28;20098;-81
2024/04/08 04:45:34;;;;;;;2.67;2.33;;;;;;;;;;5042890;28;20492;-81
2024/04/08 04:48:00;;;;;;;2.17;1.65;;;;;;;;;;5043256;28;20075;-80
2024/04/08 04:50:25;;;;;;;2.22;1.90;;;;;;;;;;5030931;28;20037;-81
2024/04/08 04:52:50;;;;;;;3.00;2.28;;;;;;;;;;5048173;28;20049;-78
2024/04/08 04:55:16;;;;;;;1.33;1.02;;;;;;;;;;5050200;28;20147;-77
2024/04/08 04:57:41;;;;;;;1.40;1.30;;;;;;;;;;5022677;28;20024;-78
2024/04/08 05:00:08;;;;;;;3.50;0.75;;;;;;;;;;5059423;28;20033;-79
2024/04/08 05:02:34;;;;;;;4.20;1.15;;;;;;;;;;5038283;28;20031;-78
2024/04/08 05:04:59;;;;;;;2.20;1.83;;;;;;;;;;5062408;28;20052;-79
2024/04/08 05:07:25;;;;;;;12.32;2.55;;;;;;;;;;5061706;28;20069;-79
2024/04/08 05:09:50;;;;;;;2.53;2.05;;;;;;;;;;5066519;28;20383;-80
2024/04/08 05:12:16;;;;;;;1.42;1.33;;;;;;;;;;5030099;28;20033;-79
2024/04/08 05:14:41;;;;;;;3.75;3.28;;;;;;;;;;5034887;28;20132;-80
2024/04/08 05:18:55;;;;;;;6.00;2.47;;;;;;;;;;5372020;26;20474;-80
2024/04/08 05:21:23;;;;;;;2.88;2.33;;;;;;;;;;5305995;26;20436;-82
2024/04/08 05:23:49;;;;;;;7.22;2.00;;;;;;;;;;5314824;26;19998;-84
2024/04/08 05:26:15;;;;;;;3.22;1.42;;;;;;;;;;5313223;26;19997;-80
2024/04/08 05:28:41;;;;;;;1.98;1.55;;;;;;;;;;5315808;26;20980;-82
2024/04/08 05:31:07;;;;;;;3.80;2.58;;;;;;;;;;5316387;26;20005;-83
2024/04/08 05:33:33;;;;;;;1.85;1.50;;;;;;;;;;5317874;26;20030;-82
2024/04/08 05:35:59;;;;;;;1.55;1.42;;;;;;;;;;5316204;26;20010;-82
2024/04/08 05:38:25;;;;;;;1.13;1.02;;;;;;;;;;5313269;26;20539;-84
2024/04/08 05:40:51;;;;;;;2.92;2.65;;;;;;;;;;5312612;26;20001;-77
2024/04/08 05:43:16;;;;;;;1.83;1.42;;;;;;;;;;5310420;26;20406;-84
2024/04/08 05:45:42;;;;;;;3.50;2.08;;;;;;;;;;5313777;26;20465;-82
2024/04/08 05:48:08;;;;;;;2.35;2.15;;;;;;;;;;5315700;26;20469;-84
2024/04/08 05:50:34;;;;;;;2.00;1.70;;;;;;;;;;5313692;26;19997;-84
2024/04/08 05:53:00;;;;;;;3.60;2.10;;;;;;;;;;5346570;26;20595;-83
2024/04/08 05:55:28;;;;;;;2.22;2.03;;;;;;;;;;5321095;26;19993;-83
2024/04/08 05:57:54;;;;;;;6.05;1.58;;;;;;;;;;5314973;26;20005;-83
2024/04/08 06:00:20;;;;;;;0.77;0.68;;;;;;;;;;5316159;26;20032;-82
2024/04/08 06:02:52;;;;;;;4.25;2.78;;;;;;;;;;5317647;26;20006;-83
2024/04/08 06:05:25;;;;;;;3.47;2.60;;;;;;;;;;5320872;26;20020;-82
2024/04/08 06:07:53;;;;;;;1.13;0.95;;;;;;;;;;5316230;26;20579;-83
2024/04/08 06:10:19;;;;;;;3.83;1.08;;;;;;;;;;5319923;26;20010;-84
2024/04/08 06:12:45;;;;;;;1.08;0.93;;;;;;;;;;5313973;26;20079;-82
2024/04/08 06:15:12;;;;;;;4.28;3.33;;;;;;;;;;5318110;26;20017;-83
2024/04/08 06:17:38;;;;;;;0.95;0.95;;;;;;;;;;5316605;26;20007;-84
2024/04/08 06:20:03;;;;;;;7.78;1.95;;;;;;;;;;5318699;26;20029;-83
2024/04/08 06:22:30;;;;;;;6.95;3.85;;;;;;;;;;5332448;26;20013;-84
2024/04/08 06:24:56;;;;;;;0.73;0.73;;;;;;;;;;5284845;26;20570;-84
2024/04/08 06:27:22;;;;;;;2.10;1.80;;;;;;;;;;5312783;26;19997;-84
2024/04/08 06:29:48;;;;;;;1.33;0.95;;;;;;;;;;5306482;26;20247;-83
2024/04/08 06:32:13;;;;;;;1.25;1.15;;;;;;;;;;5302045;26;20008;-82
2024/04/08 06:34:39;;;;;;;4.35;1.45;;;;;;;;;;5304026;26;20333;-83
2024/04/08 06:37:05;;;;;;;1.90;1.80;;;;;;;;;;5305262;26;19989;-84
2024/04/08 06:39:30;;;;;;;0.40;0.40;;;;;;;;;;5300447;26;20343;-85
2024/04/08 06:41:56;;;;;;;0.60;0.50;;;;;;;;;;5305196;26;20008;-84
2024/04/08 06:44:22;;;;;;;2.55;1.52;;;;;;;;;;5305182;26;20009;-82
2024/04/08 06:46:48;;;;;;;6.15;2.78;;;;;;;;;;5303035;26;20008;-81
2024/04/08 06:49:13;;;;;;;0.75;0.73;;;;;;;;;;5294555;26;19994;-82
2024/04/08 06:51:39;;;;;;;1.15;1.05;;;;;;;;;;5301120;26;20442;-81
2024/04/08 06:54:05;;;;;;;2.38;2.00;;;;;;;;;;5301598;26;19998;-81
2024/04/08 06:56:30;;;;;;;1.05;0.95;;;;;;;;;;5303653;26;20009;-81
2024/04/08 06:58:56;;;;;;;2.60;2.40;;;;;;;;;;5304429;26;20016;-83
2024/04/08 07:01:22;;;;;;;4.40;2.65;;;;;;;;;;5302349;26;20017;-82
2024/04/08 07:03:47;;;;;;;3.60;1.92;;;;;;;;;;5303866;26;20009;-84
2024/04/08 07:06:13;;;;;;;0.55;0.52;;;;;;;;;;5301496;26;20045;-83
2024/04/08 07:08:39;;;;;;;0.93;0.82;;;;;;;;;;5262139;27;20247;-84
2024/04/08 07:11:04;;;;;;;0.50;0.50;;;;;;;;;;5301662;26;20021;-82
2024/04/08 07:13:30;;;;;;;0.32;0.32;;;;;;;;;;5304036;26;20606;-83
2024/04/08 07:15:56;;;;;;;2.05;1.67;;;;;;;;;;5304273;26;20045;-82
2024/04/08 07:18:23;;;;;;;4.78;4.22;;;;;;;;;;5294308;26;20006;-83
2024/04/08 07:20:48;;;;;;;1.00;0.63;;;;;;;;;;5301863;26;20002;-84
2024/04/08 07:23:14;;;;;;;0.77;0.73;;;;;;;;;;5299268;26;20009;-83
2024/04/08 07:25:40;;;;;;;1.77;1.30;;;;;;;;;;5298403;26;19998;-82
2024/04/08 07:28:05;;;;;;;1.67;1.10;;;;;;;;;;5322818;26;20352;-82
2024/04/08 07:30:31;;;;;;;1.00;0.90;;;;;;;;;;5289552;27;20076;-83
2024/04/08 07:32:57;;;;;;;1.67;1.58;;;;;;;;;;5299975;26;20052;-81
2024/04/08 07:35:23;;;;;;;1.95;1.75;;;;;;;;;;5304023;26;20350;-83
2024/04/08 07:37:49;;;;;;;0.90;0.75;;;;;;;;;;5296694;26;20014;-83
2024/04/08 07:40:15;;;;;;;2.83;2.08;;;;;;;;;;5301605;26;20019;-80
2024/04/08 07:42:42;;;;;;;2.05;1.75;;;;;;;;;;5291470;26;19993;-81
2024/04/08 07:45:08;;;;;;;1.25;0.88;;;;;;;;;;5295854;26;20448;-82
2024/04/08 07:47:34;;;;;;;1.02;0.65;;;;;;;;;;5293423;26;19997;-81
2024/04/08 07:50:00;;;;;;;2.75;2.55;;;;;;;;;;5292309;26;20013;-81
2024/04/08 07:52:26;;;;;;;2.08;1.45;;;;;;;;;;5298370;26;20499;-83
2024/04/08 07:54:52;;;;;;;3.50;2.85;;;;;;;;;;5297343;26;20116;-81
2024/04/08 07:57:18;;;;;;;1.52;1.42;;;;;;;;;;5299065;26;20400;-84
2024/04/08 07:59:44;;;;;;;1.50;1.40;;;;;;;;;;5292072;26;20019;-82
2024/04/08 08:02:09;;;;;;;0.63;0.50;;;;;;;;;;5297448;26;20562;-83
2024/04/08 08:04:35;;;;;;;0.55;0.35;;;;;;;;;;5297728;26;20426;-81
2024/04/08 08:07:01;;;;;;;0.82;0.82;;;;;;;;;;5303979;26;20021;-83
2024/04/08 08:09:26;;;;;;;1.75;1.38;;;;;;;;;;5299402;26;20045;-83
2024/04/08 08:11:52;;;;;;;0.40;0.40;;;;;;;;;;5302810;26;20051;-79
2024/04/08 08:14:18;;;;;;;1.40;1.30;;;;;;;;;;5300246;26;20410;-82
2024/04/08 08:16:43;;;;;;;2.78;1.48;;;;;;;;;;5296088;26;20002;-83
2024/04/08 08:19:09;;;;;;;0.68;0.52;;;;;;;;;;5297512;26;20006;-83
2024/04/08 08:21:35;;;;;;;0.98;0.93;;;;;;;;;;5302081;26;20017;-81
2024/04/08 08:24:01;;;;;;;0.85;0.50;;;;;;;;;;5302397;26;20554;-83
2024/04/08 08:26:28;;;;;;;0.70;0.70;;;;;;;;;;5304167;26;20013;-84
2024/04/08 08:28:54;;;;;;;0.68;0.68;;;;;;;;;;5298680;26;20014;-82
2024/04/08 08:31:20;;;;;;;1.60;1.33;;;;;;;;;;5301008;26;20009;-83
2024/04/08 08:33:46;;;;;;;2.53;1.90;;;;;;;;;;5294914;26;20001;-81
2024/04/08 08:36:12;;;;;;;0.55;0.55;;;;;;;;;;5301117;26;20016;-83
2024/04/08 08:38:37;;;;;;;0.88;0.70;;;;;;;;;;5298070;26;19993;-81
2024/04/08 08:41:07;;;;;;;1.67;1.33;;;;;;;;;;5298987;26;20021;-83
2024/04/08 08:43:33;;;;;;;0.63;0.50;;;;;;;;;;5300856;26;20024;-83
2024/04/08 08:45:59;;;;;;;0.73;0.70;;;;;;;;;;5294632;26;20334;-83
2024/04/08 08:48:25;;;;;;;0.52;0.43;;;;;;;;;;5295821;26;20009;-82
2024/04/08 08:50:51;;;;;;;0.30;0.30;;;;;;;;;;5311460;26;20005;-81
2024/04/08 08:53:17;;;;;;;1.13;0.43;;;;;;;;;;5291387;26;20026;-82
2024/04/08 08:55:44;;;;;;;0.30;0.30;;;;;;;;;;5300360;26;20088;-81
2024/04/08 08:58:10;;;;;;;1.05;0.52;;;;;;;;;;5301779;26;20032;-82
2024/04/08 09:00:39;;;;;;;0.50;0.30;;;;;;;;;;5291193;27;20080;-82
2024/04/08 09:03:05;;;;;;;0.52;0.47;;;;;;;;;;5298888;26;20006;-83
2024/04/08 09:05:31;;;;;;;1.20;1.10;;;;;;;;;;5299002;26;20299;-82
2024/04/08 09:07:56;;;;;;;0.45;0.30;;;;;;;;;;5302588;26;19990;-82
2024/04/08 09:10:26;;;;;;;1.42;1.33;;;;;;;;;;5301325;26;19998;-81
2024/04/08 09:12:52;;;;;;;1.10;0.90;;;;;;;;;;5302417;26;20071;-83
2024/04/08 09:15:18;;;;;;;0.57;0.40;;;;;;;;;;5301052;26;20532;-82
2024/04/08 09:17:43;;;;;;;0.30;0.28;;;;;;;;;;5297829;26;20496;-82
2024/04/08 09:20:11;;;;;;;0.25;0.20;;;;;;;;;;5296584;26;20006;-81
2024/04/08 09:22:37;;;;;;;0.20;0.20;;;;;;;;;;5303524;26;20433;-83
2024/04/08 09:25:03;;;;;;;1.20;0.50;;;;;;;;;;5287798;26;20013;-82
2024/04/08 09:27:28;;;;;;;0.73;0.40;;;;;;;;;;5302862;26;20029;-82
2024/04/08 09:29:54;;;;;;;0.93;0.40;;;;;;;;;;5297518;26;20009;-82
2024/04/08 09:32:20;;;;;;;2.05;1.48;;;;;;;;;;5294339;26;20033;-82
2024/04/08 09:34:45;;;;;;;0.30;0.30;;;;;;;;;;5299328;26;20038;-82
2024/04/08 09:37:13;;;;;;;1.23;1.13;;;;;;;;;;5301071;26;20013;-83
2024/04/08 09:39:40;;;;;;;0.40;0.40;;;;;;;;;;5302645;26;20123;-83
2024/04/08 09:42:06;;;;;;;0.73;0.73;;;;;;;;;;5327038;26;19994;-82
2024/04/08 09:44:33;;;;;;;0.95;0.85;;;;;;;;;;5296563;26;20005;-84
2024/04/08 09:47:01;;;;;;;0.68;0.40;;;;;;;;;;5299781;26;20001;-83
2024/04/08 09:49:26;;;;;;;1.05;0.90;;;;;;;;;;5299753;26;20096;-84
2024/04/08 09:51:52;;;;;;;0.80;0.60;;;;;;;;;;5292172;26;20082;-81
2024/04/08 09:54:20;;;;;;;0.20;0.20;;;;;;;;;;5301422;26;20432;-82
2024/04/08 09:56:48;;;;;;;0.60;0.60;;;;;;;;;;5295871;26;20002;-83
2024/04/08 09:59:18;;;;;;;1.33;0.85;;;;;;;;;;5302245;26;20005;-82
2024/04/08 10:01:45;;;;;;;0.25;0.25;;;;;;;;;;5301519;26;20331;-82
2024/04/08 10:04:15;;;;;;;1.95;1.35;;;;;;;;;;5300794;26;20010;-82
2024/04/08 10:06:46;;;;;;;0.77;0.73;;;;;;;;;;5313763;26;20018;-84
2024/04/08 10:09:12;;;;;;;0.30;0.30;;;;;;;;;;5303480;26;20072;-82
2024/04/08 10:11:38;;;;;;;0.38;0.35;;;;;;;;;;5299506;26;20033;-81
2024/04/08 10:14:03;;;;;;;0.40;0.38;;;;;;;;;;5305775;26;20073;-83
2024/04/08 10:16:29;;;;;;;0.30;0.30;;;;;;;;;;5305331;26;20005;-81
2024/04/08 10:18:55;;;;;;;1.33;1.20;;;;;;;;;;5302544;26;20016;-83
2024/04/08 10:21:21;;;;;;;3.13;1.95;;;;;;;;;;5304941;26;19997;-84
2024/04/08 10:23:47;;;;;;;2.25;0.95;;;;;;;;;;5302543;26;20500;-83
2024/04/08 10:26:14;;;;;;;0.20;0.20;;;;;;;;;;5301171;26;19993;-83
2024/04/08 10:28:40;;;;;;;1.02;0.88;;;;;;;;;;5301937;26;20073;-83
2024/04/08 10:31:06;;;;;;;0.70;0.70;;;;;;;;;;5299018;26;20001;-82
2024/04/08 10:33:32;;;;;;;2.00;1.33;;;;;;;;;;5302739;26;20134;-81
2024/04/08 10:35:57;;;;;;;0.50;0.40;;;;;;;;;;5302694;26;19998;-83
2024/04/08 10:38:23;;;;;;;2.05;1.30;;;;;;;;;;5304144;26;20014;-84
2024/04/08 10:40:49;;;;;;;1.00;0.77;;;;;;;;;;5304921;26;20001;-84
2024/04/08 10:43:15;;;;;;;0.32;0.32;;;;;;;;;;5298742;26;20801;-82
2024/04/08 10:45:40;;;;;;;0.95;0.82;;;;;;;;;;5308867;26;20012;-82
2024/04/08 10:48:10;;;;;;;0.25;0.25;;;;;;;;;;5303498;26;20002;-83
2024/04/08 10:50:36;;;;;;;0.52;0.30;;;;;;;;;;5302127;26;20610;-82
2024/04/08 10:53:02;;;;;;;0.75;0.75;;;;;;;;;;5304041;26;19993;-83
2024/04/08 10:55:28;;;;;;;0.32;0.32;;;;;;;;;;5299692;26;20009;-81
2024/04/08 10:57:53;;;;;;;1.35;1.17;;;;;;;;;;5301342;26;19993;-81
2024/04/08 11:00:19;;;;;;;2.28;0.90;;;;;;;;;;5304566;26;20310;-83
2024/04/08 11:02:45;;;;;;;1.67;1.55;;;;;;;;;;5303620;26;20008;-84
2024/04/08 11:05:14;;;;;;;0.22;0.22;;;;;;;;;;5299477;26;20002;-83
2024/04/08 11:07:40;;;;;;;0.50;0.50;;;;;;;;;;5302444;26;20376;-83
2024/04/08 11:10:07;;;;;;;0.90;0.90;;;;;;;;;;5304325;26;20017;-84
2024/04/08 11:12:33;;;;;;;0.10;0.10;;;;;;;;;;5300848;26;20076;-85
2024/04/08 11:15:02;;;;;;;1.42;1.33;;;;;;;;;;5298241;26;20050;-82
2024/04/08 11:17:28;;;;;;;0.68;0.38;;;;;;;;;;5296114;26;20041;-83
2024/04/08 11:19:58;;;;;;;0.55;0.40;;;;;;;;;;5297132;26;20006;-83
2024/04/08 11:22:24;;;;;;;0.30;0.30;;;;;;;;;;5303307;26;20005;-84
2024/04/08 11:24:49;;;;;;;1.27;0.77;;;;;;;;;;5302695;26;20574;-83
2024/04/08 11:27:16;;;;;;;0.28;0.20;;;;;;;;;;5304559;26;19998;-84
2024/04/08 11:29:42;;;;;;;0.20;0.20;;;;;;;;;;5302806;26;20006;-81
2024/04/08 11:32:09;;;;;;;0.43;0.28;;;;;;;;;;5309751;26;19998;-83
2024/04/08 11:34:34;;;;;;;0.22;0.22;;;;;;;;;;5299548;26;20013;-84
2024/04/08 11:37:02;;;;;;;0.20;0.20;;;;;;;;;;5305195;26;20008;-83
2024/04/08 11:39:28;;;;;;;0.20;0.20;;;;;;;;;;5306737;26;20017;-84
2024/04/08 11:41:53;;;;;;;4.25;0.85;;;;;;;;;;5300612;26;20013;-82
2024/04/08 11:44:24;;;;;;;0.60;0.55;;;;;;;;;;5306178;26;20012;-83
2024/04/08 11:46:50;;;;;;;0.65;0.65;;;;;;;;;;5305086;26;19997;-83
2024/04/08 11:49:15;;;;;;;0.40;0.40;;;;;;;;;;5298836;26;20015;-81
2024/04/08 11:51:42;;;;;;;0.22;0.22;;;;;;;;;;5298532;26;20081;-82
2024/04/08 11:54:08;;;;;;;0.20;0.20;;;;;;;;;;5298498;26;20098;-84
2024/04/08 11:56:33;;;;;;;0.47;0.40;;;;;;;;;;5300351;26;21507;-84
2024/04/08 11:58:59;;;;;;;1.48;1.15;;;;;;;;;;5350201;26;20017;-82
2024/04/08 12:01:26;;;;;;;0.20;0.20;;;;;;;;;;5303759;26;20025;-82
2024/04/08 12:03:51;;;;;;;0.30;0.30;;;;;;;;;;5297679;26;20012;-83
2024/04/08 12:06:17;;;;;;;0.50;0.50;;;;;;;;;;5302354;26;20002;-83
2024/04/08 12:08:43;;;;;;;0.30;0.30;;;;;;;;;;5304365;26;20125;-81
2024/04/08 12:11:10;;;;;;;0.20;0.20;;;;;;;;;;5303801;26;20013;-82
2024/04/08 12:13:36;;;;;;;0.63;0.50;;;;;;;;;;5299218;26;20080;-83
2024/04/08 12:16:01;;;;;;;0.40;0.32;;;;;;;;;;5301367;26;20030;-82
2024/04/08 12:18:28;;;;;;;0.40;0.40;;;;;;;;;;5291100;26;20353;-83
2024/04/08 12:20:54;;;;;;;0.60;0.40;;;;;;;;;;5297435;26;20058;-82
2024/04/08 12:23:19;;;;;;;0.30;0.30;;;;;;;;;;5302936;26;19998;-84
2024/04/08 12:25:45;;;;;;;0.17;0.17;;;;;;;;;;5303375;26;20005;-83
2024/04/08 12:28:11;;;;;;;1.55;0.30;;;;;;;;;;5296700;26;20017;-82
2024/04/08 12:30:37;;;;;;;0.73;0.57;;;;;;;;;;5303929;26;20388;-84
2024/04/08 12:33:03;;;;;;;0.30;0.30;;;;;;;;;;5294609;26;20021;-81
2024/04/08 12:35:29;;;;;;;0.20;0.20;;;;;;;;;;5298808;26;20072;-80
2024/04/08 12:37:55;;;;;;;0.20;0.20;;;;;;;;;;5299650;26;20012;-83
2024/04/08 12:40:21;;;;;;;0.38;0.38;;;;;;;;;;5300887;26;20009;-84
2024/04/08 12:42:46;;;;;;;0.70;0.68;;;;;;;;;;5296675;26;19997;-82
2024/04/08 12:45:12;;;;;;;0.50;0.47;;;;;;;;;;5297600;26;21101;-82
2024/04/08 12:47:38;;;;;;;0.30;0.20;;;;;;;;;;5295186;26;20042;-81
2024/04/08 12:50:05;;;;;;;0.57;0.57;;;;;;;;;;5298190;26;20001;-83
2024/04/08 12:52:33;;;;;;;0.95;0.77;;;;;;;;;;5303338;26;20083;-81
2024/04/08 12:54:59;;;;;;;1.17;0.73;;;;;;;;;;5293727;26;20002;-80
2024/04/08 12:57:24;;;;;;;0.40;0.30;;;;;;;;;;5298455;26;20001;-81
2024/04/08 12:59:50;;;;;;;0.38;0.38;;;;;;;;;;5298734;26;20438;-82
2024/04/08 13:02:16;;;;;;;0.20;0.20;;;;;;;;;;5301988;26;20024;-81
2024/04/08 13:04:42;;;;;;;0.22;0.22;;;;;;;;;;5300714;26;20025;-83
2024/04/08 13:07:10;;;;;;;0.30;0.30;;;;;;;;;;5303791;26;20002;-80
2024/04/08 13:09:36;;;;;;;1.15;0.60;;;;;;;;;;5303540;26;20039;-83
2024/04/08 13:12:03;;;;;;;0.43;0.30;;;;;;;;;;5299838;26;20005;-83
2024/04/08 13:14:28;;;;;;;1.33;1.05;;;;;;;;;;5298274;26;20006;-82
2024/04/08 13:16:54;;;;;;;0.20;0.20;;;;;;;;;;5295172;26;20482;-83
2024/04/08 13:19:20;;;;;;;0.50;0.50;;;;;;;;;;5289620;26;20094;-83
2024/04/08 13:21:45;;;;;;;1.20;1.10;;;;;;;;;;5298067;26;19998;-81
2024/04/08 13:24:11;;;;;;;0.95;0.80;;;;;;;;;;5292937;26;20086;-82
2024/04/08 13:26:42;;;;;;;0.40;0.40;;;;;;;;;;5298809;26;20005;-81
2024/04/08 13:29:08;;;;;;;1.55;1.45;;;;;;;;;;5294208;26;20013;-80
2024/04/08 13:31:33;;;;;;;1.98;1.80;;;;;;;;;;5278026;26;20029;-81
2024/04/08 13:33:59;;;;;;;1.63;0.57;;;;;;;;;;5298252;26;20295;-80
2024/04/08 13:36:25;;;;;;;1.42;1.23;;;;;;;;;;5299607;26;19994;-81
2024/04/08 13:38:51;;;;;;;0.10;0.10;;;;;;;;;;5296731;26;20001;-82
2024/04/08 13:41:16;;;;;;;0.43;0.43;;;;;;;;;;5297714;26;19997;-82
2024/04/08 13:43:42;;;;;;;0.80;0.80;;;;;;;;;;5287880;26;20028;-81
2024/04/08 13:46:08;;;;;;;25.85;0.73;;;;;;;;;;5298235;26;20006;-80
2024/04/08 13:48:33;;;;;;;0.10;0.10;;;;;;;;;;5301555;26;20033;-81
2024/04/08 13:50:59;;;;;;;0.10;0.10;;;;;;;;;;5287961;26;19994;-80
2024/04/08 13:53:27;;;;;;;0.30;0.30;;;;;;;;;;5299117;26;20594;-80
2024/04/08 13:55:55;;;;;;;0.63;0.50;;;;;;;;;;5293299;26;20012;-80
2024/04/08 13:58:20;;;;;;;1.75;0.93;;;;;;;;;;5303939;26;20339;-79
2024/04/08 14:00:46;;;;;;;0.47;0.38;;;;;;;;;;5299222;26;20002;-81
2024/04/08 14:03:12;;;;;;;0.25;0.25;;;;;;;;;;5301190;26;20394;-80
2024/04/08 14:05:37;;;;;;;0.40;0.40;;;;;;;;;;5296442;26;20028;-84
2024/04/08 14:08:04;;;;;;;0.73;0.73;;;;;;;;;;5294097;26;20017;-77
2024/04/08 14:10:30;;;;;;;0.98;0.90;;;;;;;;;;5291384;26;19998;-79
2024/04/08 14:12:56;;;;;;;0.75;0.40;;;;;;;;;;5297181;26;20016;-79
2024/04/08 14:15:22;;;;;;;0.65;0.65;;;;;;;;;;5301641;26;20456;-80
2024/04/08 14:17:47;;;;;;;0.50;0.45;;;;;;;;;;5295480;26;20027;-78
2024/04/08 14:20:13;;;;;;;0.47;0.38;;;;;;;;;;5298429;26;20791;-78
2024/04/08 14:22:39;;;;;;;0.57;0.57;;;;;;;;;;5299632;26;20507;-79
2024/04/08 14:25:06;;;;;;;0.63;0.60;;;;;;;;;;5300386;26;19998;-79
2024/04/08 14:27:32;;;;;;;1.48;1.38;;;;;;;;;;5298285;26;20045;-78
2024/04/08 14:29:58;;;;;;;0.93;0.80;;;;;;;;;;5309769;26;20498;-78
2024/04/08 14:32:23;;;;;;;0.20;0.20;;;;;;;;;;5293011;26;20017;-81
2024/04/08 14:34:49;;;;;;;0.20;0.20;;;;;;;;;;5297742;26;20005;-78
2024/04/08 14:37:15;;;;;;;0.10;0.10;;;;;;;;;;5302785;26;19998;-76